Terminal Aerodrome Forecast
Issued by NWS

Home | Current Version | Previous Version | Graphics & Text | Print | Product List | Glossary On
Versions: 1 2 3 4 5 6 7 8 9 10 11 12 13 14 15 16 17 18 19 20 21 22
000
FTUS43 KMPX 251139
TAFRWF
TAF
KRWF 251139Z 2512/2612 29004KT 1SM BR OVC002
     FM251400 27008KT 3SM -RA BR OVC005
     FM251800 27011KT P6SM SCT009 BKN015
     FM260000 28008KT P6SM SCT020 OVC040
     FM260300 26006KT 4SM BR BKN020
     FM260600 33005KT 1SM BR OVC005=

USA.gov is the U.S. government's official web portal to all federal, state and local government web resources and services.